sensor_id;sensor_type;location;lat;lon;timestamp;P1;durP1;ratioP1;P2;durP2;ratioP2
72209;SDS011;60113;48.762;12.302;2023-06-24T07:12:16;3.78;;;2.90;;
72209;SDS011;60113;48.762;12.302;2023-06-24T07:14:41;4.68;;;2.72;;
72209;SDS011;60113;48.762;12.302;2023-06-24T07:17:09;4.03;;;2.55;;
72209;SDS011;60113;48.762;12.302;2023-06-24T07:22:40;4.57;;;2.70;;
72209;SDS011;60113;48.762;12.302;2023-06-24T07:25:17;2.97;;;2.25;;
72209;SDS011;60113;48.762;12.302;2023-06-24T07:27:43;4.55;;;2.97;;
72209;SDS011;60113;48.762;12.302;2023-06-24T07:30:08;4.00;;;2.83;;
72209;SDS011;60113;48.762;12.302;2023-06-24T07:32:46;4.07;;;2.42;;
72209;SDS011;60113;48.762;12.302;2023-06-24T07:35:26;3.53;;;2.67;;
72209;SDS011;60113;48.762;12.302;2023-06-24T07:37:52;3.30;;;2.30;;
72209;SDS011;60113;48.762;12.302;2023-06-24T07:40:20;3.33;;;2.47;;
72209;SDS011;60113;48.762;12.302;2023-06-24T07:42:48;2.97;;;2.30;;
72209;SDS011;60113;48.762;12.302;2023-06-24T07:45:23;4.25;;;2.55;;
72209;SDS011;60113;48.762;12.302;2023-06-24T07:47:59;3.33;;;2.55;;
72209;SDS011;60113;48.762;12.302;2023-06-24T07:50:37;3.05;;;2.13;;
72209;SDS011;60113;48.762;12.302;2023-06-24T07:53:16;3.03;;;2.72;;
72209;SDS011;60113;48.762;12.302;2023-06-24T07:55:44;4.38;;;2.20;;
72209;SDS011;60113;48.762;12.302;2023-06-24T07:58:09;2.45;;;2.10;;
72209;SDS011;60113;48.762;12.302;2023-06-24T08:00:37;2.22;;;1.83;;
72209;SDS011;60113;48.762;12.302;2023-06-24T08:03:03;3.08;;;1.80;;
72209;SDS011;60113;48.762;12.302;2023-06-24T08:05:30;4.47;;;1.90;;
72209;SDS011;60113;48.762;12.302;2023-06-24T08:08:02;2.88;;;2.17;;
72209;SDS011;60113;48.762;12.302;2023-06-24T08:10:33;2.88;;;1.92;;
72209;SDS011;60113;48.762;12.302;2023-06-24T08:13:16;2.33;;;1.83;;
72209;SDS011;60113;48.762;12.302;2023-06-24T08:15:42;1.92;;;1.67;;
72209;SDS011;60113;48.762;12.302;2023-06-24T08:18:07;2.15;;;1.75;;
72209;SDS011;60113;48.762;12.302;2023-06-24T08:20:41;2.92;;;1.67;;
72209;SDS011;60113;48.762;12.302;2023-06-24T08:23:07;3.42;;;1.98;;
72209;SDS011;60113;48.762;12.302;2023-06-24T08:25:40;2.60;;;1.65;;
72209;SDS011;60113;48.762;12.302;2023-06-24T08:28:08;2.38;;;1.55;;
72209;SDS011;60113;48.762;12.302;2023-06-24T08:30:36;3.17;;;1.80;;
72209;SDS011;60113;48.762;12.302;2023-06-24T08:33:02;2.58;;;1.88;;
72209;SDS011;60113;48.762;12.302;2023-06-24T08:35:42;7.07;;;2.67;;
72209;SDS011;60113;48.762;12.302;2023-06-24T08:41:14;2.25;;;1.83;;
72209;SDS011;60113;48.762;12.302;2023-06-24T08:43:42;2.90;;;2.05;;
72209;SDS011;60113;48.762;12.302;2023-06-24T08:46:20;3.10;;;1.90;;
72209;SDS011;60113;48.762;12.302;2023-06-24T08:48:46;2.78;;;1.70;;
72209;SDS011;60113;48.762;12.302;2023-06-24T08:51:13;2.85;;;1.75;;
72209;SDS011;60113;48.762;12.302;2023-06-24T08:53:43;2.35;;;1.90;;
72209;SDS011;60113;48.762;12.302;2023-06-24T08:56:10;3.08;;;2.00;;
72209;SDS011;60113;48.762;12.302;2023-06-24T08:58:48;2.90;;;2.22;;
72209;SDS011;60113;48.762;12.302;2023-06-24T09:01:17;3.00;;;2.08;;
72209;SDS011;60113;48.762;12.302;2023-06-24T09:03:42;2.75;;;2.20;;
72209;SDS011;60113;48.762;12.302;2023-06-24T09:06:08;3.08;;;2.30;;
72209;SDS011;60113;48.762;12.302;2023-06-24T09:08:36;3.17;;;2.08;;
72209;SDS011;60113;48.762;12.302;2023-06-24T09:11:08;3.83;;;2.00;;
72209;SDS011;60113;48.762;12.302;2023-06-24T09:13:36;2.65;;;1.90;;
72209;SDS011;60113;48.762;12.302;2023-06-24T09:16:12;3.10;;;1.77;;
72209;SDS011;60113;48.762;12.302;2023-06-24T09:18:51;2.65;;;1.80;;
72209;SDS011;60113;48.762;12.302;2023-06-24T09:21:21;2.13;;;1.88;;
72209;SDS011;60113;48.762;12.302;2023-06-24T09:23:51;2.92;;;1.88;;
72209;SDS011;60113;48.762;12.302;2023-06-24T09:26:22;3.33;;;1.90;;
72209;SDS011;60113;48.762;12.302;2023-06-24T09:29:06;2.78;;;1.77;;
72209;SDS011;60113;48.762;12.302;2023-06-24T09:31:33;4.15;;;1.63;;
72209;SDS011;60113;48.762;12.302;2023-06-24T09:34:18;2.20;;;1.70;;
72209;SDS011;60113;48.762;12.302;2023-06-24T09:36:57;5.88;;;1.58;;
72209;SDS011;60113;48.762;12.302;2023-06-24T09:39:41;1.80;;;1.42;;
72209;SDS011;60113;48.762;12.302;2023-06-24T09:42:15;1.50;;;1.40;;
72209;SDS011;60113;48.762;12.302;2023-06-24T09:44:52;2.97;;;1.50;;
72209;SDS011;60113;48.762;12.302;2023-06-24T09:47:23;2.47;;;1.65;;
72209;SDS011;60113;48.762;12.302;2023-06-24T09:49:53;1.73;;;1.25;;
72209;SDS011;60113;48.762;12.302;2023-06-24T09:52:19;1.45;;;1.17;;
72209;SDS011;60113;48.762;12.302;2023-06-24T09:54:58;2.15;;;1.30;;
72209;SDS011;60113;48.762;12.302;2023-06-24T09:57:29;2.42;;;1.63;;
72209;SDS011;60113;48.762;12.302;2023-06-24T10:00:00;1.55;;;1.33;;
72209;SDS011;60113;48.762;12.302;2023-06-24T10:02:38;2.25;;;1.48;;
72209;SDS011;60113;48.762;12.302;2023-06-24T10:05:09;2.40;;;1.75;;
72209;SDS011;60113;48.762;12.302;2023-06-24T10:07:44;6.20;;;1.92;;
72209;SDS011;60113;48.762;12.302;2023-06-24T10:10:22;2.22;;;1.58;;
72209;SDS011;60113;48.762;12.302;2023-06-24T10:12:48;2.08;;;1.52;;
72209;SDS011;60113;48.762;12.302;2023-06-24T10:15:13;3.75;;;1.60;;
72209;SDS011;60113;48.762;12.302;2023-06-24T10:17:44;4.30;;;1.85;;
72209;SDS011;60113;48.762;12.302;2023-06-24T10:20:13;2.17;;;1.60;;
72209;SDS011;60113;48.762;12.302;2023-06-24T10:22:51;2.33;;;1.75;;
72209;SDS011;60113;48.762;12.302;2023-06-24T10:25:16;2.97;;;1.60;;
72209;SDS011;60113;48.762;12.302;2023-06-24T10:27:45;1.80;;;1.60;;
72209;SDS011;60113;48.762;12.302;2023-06-24T10:30:17;4.45;;;1.40;;
72209;SDS011;60113;48.762;12.302;2023-06-24T10:32:47;3.58;;;2.00;;
72209;SDS011;60113;48.762;12.302;2023-06-24T10:35:27;2.50;;;1.70;;
72209;SDS011;60113;48.762;12.302;2023-06-24T10:37:57;1.70;;;1.58;;
72209;SDS011;60113;48.762;12.302;2023-06-24T10:40:43;3.30;;;1.83;;
72209;SDS011;60113;48.762;12.302;2023-06-24T10:45:52;2.00;;;1.60;;
72209;SDS011;60113;48.762;12.302;2023-06-24T10:48:30;2.53;;;1.83;;
72209;SDS011;60113;48.762;12.302;2023-06-24T10:50:57;2.53;;;1.60;;
72209;SDS011;60113;48.762;12.302;2023-06-24T10:53:29;2.55;;;1.70;;
72209;SDS011;60113;48.762;12.302;2023-06-24T10:55:56;2.40;;;1.55;;
72209;SDS011;60113;48.762;12.302;2023-06-24T10:58:31;2.03;;;1.52;;
72209;SDS011;60113;48.762;12.302;2023-06-24T11:01:07;2.65;;;1.90;;
72209;SDS011;60113;48.762;12.302;2023-06-24T11:03:52;2.33;;;1.90;;
72209;SDS011;60113;48.762;12.302;2023-06-24T11:06:23;3.45;;;1.90;;
72209;SDS011;60113;48.762;12.302;2023-06-24T11:09:00;2.20;;;1.75;;
72209;SDS011;60113;48.762;12.302;2023-06-24T11:11:39;2.67;;;1.60;;
72209;SDS011;60113;48.762;12.302;2023-06-24T11:14:07;2.58;;;1.80;;
72209;SDS011;60113;48.762;12.302;2023-06-24T11:16:47;4.03;;;2.05;;
72209;SDS011;60113;48.762;12.302;2023-06-24T11:19:15;2.53;;;1.70;;
72209;SDS011;60113;48.762;12.302;2023-06-24T11:21:59;3.17;;;1.42;;
72209;SDS011;60113;48.762;12.302;2023-06-24T11:24:28;3.05;;;1.83;;
72209;SDS011;60113;48.762;12.302;2023-06-24T11:26:56;2.28;;;1.73;;
72209;SDS011;60113;48.762;12.302;2023-06-24T11:29:28;2.20;;;1.70;;
72209;SDS011;60113;48.762;12.302;2023-06-24T11:31:54;3.53;;;1.50;;
72209;SDS011;60113;48.762;12.302;2023-06-24T11:34:23;2.30;;;1.50;;
72209;SDS011;60113;48.762;12.302;2023-06-24T11:36:48;1.70;;;1.50;;
72209;SDS011;60113;48.762;12.302;2023-06-24T11:39:29;2.08;;;1.70;;
72209;SDS011;60113;48.762;12.302;2023-06-24T11:41:54;1.98;;;1.48;;
72209;SDS011;60113;48.762;12.302;2023-06-24T11:44:31;3.30;;;1.70;;
72209;SDS011;60113;48.762;12.302;2023-06-24T11:47:15;2.25;;;1.50;;
72209;SDS011;60113;48.762;12.302;2023-06-24T11:49:50;1.50;;;1.40;;
72209;SDS011;60113;48.762;12.302;2023-06-24T11:52:44;2.00;;;1.70;;
72209;SDS011;60113;48.762;12.302;2023-06-24T11:55:30;3.13;;;1.90;;
72209;SDS011;60113;48.762;12.302;2023-06-24T11:58:18;2.17;;;1.45;;
72209;SDS011;60113;48.762;12.302;2023-06-24T12:00:44;2.50;;;1.50;;
72209;SDS011;60113;48.762;12.302;2023-06-24T12:03:22;4.05;;;2.10;;
72209;SDS011;60113;48.762;12.302;2023-06-24T12:05:47;2.42;;;1.42;;
72209;SDS011;60113;48.762;12.302;2023-06-24T12:08:21;1.70;;;1.30;;
72209;SDS011;60113;48.762;12.302;2023-06-24T12:10:48;2.03;;;1.60;;
72209;SDS011;60113;48.762;12.302;2023-06-24T12:13:13;2.30;;;1.77;;
72209;SDS011;60113;48.762;12.302;2023-06-24T12:15:39;2.17;;;1.50;;
72209;SDS011;60113;48.762;12.302;2023-06-24T12:18:07;3.13;;;1.70;;
72209;SDS011;60113;48.762;12.302;2023-06-24T12:20:33;2.83;;;1.60;;
72209;SDS011;60113;48.762;12.302;2023-06-24T12:23:02;2.30;;;1.50;;
72209;SDS011;60113;48.762;12.302;2023-06-24T12:25:34;3.05;;;1.48;;
72209;SDS011;60113;48.762;12.302;2023-06-24T12:28:02;2.03;;;1.40;;
72209;SDS011;60113;48.762;12.302;2023-06-24T12:30:46;2.10;;;1.40;;
72209;SDS011;60113;48.762;12.302;2023-06-24T12:33:11;2.30;;;1.50;;
72209;SDS011;60113;48.762;12.302;2023-06-24T12:35:39;2.25;;;1.50;;
72209;SDS011;60113;48.762;12.302;2023-06-24T12:38:23;2.80;;;1.80;;
72209;SDS011;60113;48.762;12.302;2023-06-24T12:41:07;2.63;;;1.67;;
72209;SDS011;60113;48.762;12.302;2023-06-24T12:43:48;2.08;;;1.58;;
72209;SDS011;60113;48.762;12.302;2023-06-24T12:46:22;3.47;;;1.48;;
72209;SDS011;60113;48.762;12.302;2023-06-24T12:49:00;3.00;;;1.45;;
72209;SDS011;60113;48.762;12.302;2023-06-24T12:51:25;2.40;;;1.63;;
72209;SDS011;60113;48.762;12.302;2023-06-24T12:53:50;2.20;;;1.52;;
72209;SDS011;60113;48.762;12.302;2023-06-24T12:56:16;1.90;;;1.63;;
72209;SDS011;60113;48.762;12.302;2023-06-24T12:58:53;1.60;;;1.40;;
72209;SDS011;60113;48.762;12.302;2023-06-24T13:01:18;1.40;;;1.10;;
72209;SDS011;60113;48.762;12.302;2023-06-24T13:03:47;1.63;;;1.23;;
72209;SDS011;60113;48.762;12.302;2023-06-24T13:06:12;3.00;;;1.55;;
72209;SDS011;60113;48.762;12.302;2023-06-24T13:08:42;1.65;;;1.23;;
72209;SDS011;60113;48.762;12.302;2023-06-24T13:11:08;2.47;;;1.52;;
72209;SDS011;60113;48.762;12.302;2023-06-24T13:13:34;1.48;;;1.17;;
72209;SDS011;60113;48.762;12.302;2023-06-24T13:16:02;3.67;;;1.70;;
72209;SDS011;60113;48.762;12.302;2023-06-24T13:18:27;2.40;;;1.60;;
72209;SDS011;60113;48.762;12.302;2023-06-24T13:21:02;3.78;;;1.50;;
72209;SDS011;60113;48.762;12.302;2023-06-24T13:23:33;2.03;;;1.50;;
72209;SDS011;60113;48.762;12.302;2023-06-24T13:26:11;2.95;;;1.10;;
72209;SDS011;60113;48.762;12.302;2023-06-24T13:28:48;1.60;;;1.40;;
72209;SDS011;60113;48.762;12.302;2023-06-24T13:31:17;1.65;;;1.45;;
72209;SDS011;60113;48.762;12.302;2023-06-24T13:33:45;2.72;;;1.38;;
72209;SDS011;60113;48.762;12.302;2023-06-24T13:36:28;3.40;;;1.45;;
72209;SDS011;60113;48.762;12.302;2023-06-24T13:39:10;2.45;;;1.40;;
72209;SDS011;60113;48.762;12.302;2023-06-24T13:41:37;3.50;;;1.58;;
72209;SDS011;60113;48.762;12.302;2023-06-24T13:44:03;2.67;;;1.50;;
72209;SDS011;60113;48.762;12.302;2023-06-24T13:46:47;2.70;;;1.70;;
72209;SDS011;60113;48.762;12.302;2023-06-24T13:49:13;2.65;;;1.60;;
72209;SDS011;60113;48.762;12.302;2023-06-24T13:51:41;6.28;;;1.58;;
72209;SDS011;60113;48.762;12.302;2023-06-24T13:54:19;2.20;;;1.50;;
72209;SDS011;60113;48.762;12.302;2023-06-24T13:56:50;1.73;;;1.30;;
72209;SDS011;60113;48.762;12.302;2023-06-24T13:59:34;2.10;;;1.20;;
72209;SDS011;60113;48.762;12.302;2023-06-24T14:02:11;1.52;;;1.15;;
72209;SDS011;60113;48.762;12.302;2023-06-24T14:04:37;1.92;;;1.40;;
72209;SDS011;60113;48.762;12.302;2023-06-24T14:07:04;2.10;;;1.60;;
72209;SDS011;60113;48.762;12.302;2023-06-24T14:09:42;1.20;;;1.10;;
72209;SDS011;60113;48.762;12.302;2023-06-24T14:12:08;1.90;;;1.33;;
72209;SDS011;60113;48.762;12.302;2023-06-24T14:14:40;1.95;;;1.55;;
72209;SDS011;60113;48.762;12.302;2023-06-24T14:17:06;1.52;;;1.20;;
72209;SDS011;60113;48.762;12.302;2023-06-24T14:19:49;2.05;;;1.40;;
72209;SDS011;60113;48.762;12.302;2023-06-24T14:22:15;2.20;;;1.40;;
72209;SDS011;60113;48.762;12.302;2023-06-24T14:24:51;2.38;;;1.15;;
72209;SDS011;60113;48.762;12.302;2023-06-24T14:27:16;1.67;;;1.50;;
72209;SDS011;60113;48.762;12.302;2023-06-24T14:29:47;2.10;;;1.30;;
72209;SDS011;60113;48.762;12.302;2023-06-24T14:32:25;2.45;;;1.50;;
72209;SDS011;60113;48.762;12.302;2023-06-24T14:34:50;2.80;;;1.50;;
72209;SDS011;60113;48.762;12.302;2023-06-24T14:37:30;2.88;;;1.45;;
72209;SDS011;60113;48.762;12.302;2023-06-24T14:40:05;1.40;;;1.25;;
72209;SDS011;60113;48.762;12.302;2023-06-24T14:42:31;1.40;;;1.20;;
72209;SDS011;60113;48.762;12.302;2023-06-24T14:45:09;2.40;;;1.50;;
72209;SDS011;60113;48.762;12.302;2023-06-24T14:47:43;1.52;;;1.33;;
72209;SDS011;60113;48.762;12.302;2023-06-24T14:50:09;2.15;;;1.50;;
72209;SDS011;60113;48.762;12.302;2023-06-24T14:52:37;1.75;;;1.27;;
72209;SDS011;60113;48.762;12.302;2023-06-24T14:55:03;1.88;;;1.23;;
72209;SDS011;60113;48.762;12.302;2023-06-24T14:57:37;2.03;;;1.55;;
72209;SDS011;60113;48.762;12.302;2023-06-24T15:00:04;1.70;;;1.30;;
72209;SDS011;60113;48.762;12.302;2023-06-24T15:02:30;4.15;;;1.40;;
72209;SDS011;60113;48.762;12.302;2023-06-24T15:05:08;2.17;;;1.55;;
72209;SDS011;60113;48.762;12.302;2023-06-24T15:07:34;2.38;;;1.45;;
72209;SDS011;60113;48.762;12.302;2023-06-24T15:10:06;3.17;;;1.20;;
72209;SDS011;60113;48.762;12.302;2023-06-24T15:12:52;1.33;;;1.15;;
72209;SDS011;60113;48.762;12.302;2023-06-24T15:15:18;1.75;;;1.33;;
72209;SDS011;60113;48.762;12.302;2023-06-24T15:17:43;1.70;;;1.30;;
72209;SDS011;60113;48.762;12.302;2023-06-24T15:20:13;1.92;;;1.40;;
72209;SDS011;60113;48.762;12.302;2023-06-24T15:22:47;1.30;;;1.20;;
72209;SDS011;60113;48.762;12.302;2023-06-24T15:25:25;1.50;;;1.33;;
72209;SDS011;60113;48.762;12.302;2023-06-24T15:27:58;2.25;;;1.40;;
72209;SDS011;60113;48.762;12.302;2023-06-24T15:30:38;2.72;;;1.23;;
72209;SDS011;60113;48.762;12.302;2023-06-24T15:33:03;2.03;;;1.33;;
72209;SDS011;60113;48.762;12.302;2023-06-24T15:35:35;1.47;;;1.30;;
72209;SDS011;60113;48.762;12.302;2023-06-24T15:38:18;2.03;;;1.15;;
72209;SDS011;60113;48.762;12.302;2023-06-24T15:40:48;1.67;;;1.50;;
72209;SDS011;60113;48.762;12.302;2023-06-24T15:43:16;1.50;;;1.23;;
72209;SDS011;60113;48.762;12.302;2023-06-24T15:45:45;1.63;;;1.40;;
72209;SDS011;60113;48.762;12.302;2023-06-24T15:48:19;1.50;;;1.13;;
72209;SDS011;60113;48.762;12.302;2023-06-24T15:50:53;1.67;;;1.45;;
72209;SDS011;60113;48.762;12.302;2023-06-24T15:53:19;1.98;;;1.35;;
72209;SDS011;60113;48.762;12.302;2023-06-24T15:55:47;1.92;;;1.50;;
72209;SDS011;60113;48.762;12.302;2023-06-24T15:58:13;2.78;;;1.40;;
72209;SDS011;60113;48.762;12.302;2023-06-24T16:00:50;3.17;;;1.50;;
72209;SDS011;60113;48.762;12.302;2023-06-24T16:03:21;1.65;;;1.55;;
72209;SDS011;60113;48.762;12.302;2023-06-24T16:05:58;1.55;;;1.30;;
72209;SDS011;60113;48.762;12.302;2023-06-24T16:08:24;1.70;;;1.42;;
72209;SDS011;60113;48.762;12.302;2023-06-24T16:10:51;3.20;;;1.73;;
72209;SDS011;60113;48.762;12.302;2023-06-24T16:13:20;1.85;;;1.35;;
72209;SDS011;60113;48.762;12.302;2023-06-24T16:15:49;1.77;;;1.42;;
72209;SDS011;60113;48.762;12.302;2023-06-24T16:18:17;1.83;;;1.38;;
72209;SDS011;60113;48.762;12.302;2023-06-24T16:20:42;2.78;;;1.50;;
72209;SDS011;60113;48.762;12.302;2023-06-24T16:23:07;3.20;;;1.52;;
72209;SDS011;60113;48.762;12.302;2023-06-24T16:25:35;1.20;;;1.00;;
72209;SDS011;60113;48.762;12.302;2023-06-24T16:28:16;2.30;;;1.50;;
72209;SDS011;60113;48.762;12.302;2023-06-24T16:30:42;1.95;;;1.20;;
72209;SDS011;60113;48.762;12.302;2023-06-24T16:33:07;2.10;;;1.35;;
72209;SDS011;60113;48.762;12.302;2023-06-24T16:35:33;3.05;;;1.38;;
72209;SDS011;60113;48.762;12.302;2023-06-24T16:37:58;2.42;;;1.90;;
72209;SDS011;60113;48.762;12.302;2023-06-24T16:40:23;2.35;;;1.42;;
72209;SDS011;60113;48.762;12.302;2023-06-24T16:42:52;1.70;;;1.30;;
72209;SDS011;60113;48.762;12.302;2023-06-24T16:45:20;1.92;;;1.50;;
72209;SDS011;60113;48.762;12.302;2023-06-24T16:47:45;1.98;;;1.67;;
72209;SDS011;60113;48.762;12.302;2023-06-24T16:50:11;2.65;;;1.33;;
72209;SDS011;60113;48.762;12.302;2023-06-24T16:52:36;2.10;;;1.42;;
72209;SDS011;60113;48.762;12.302;2023-06-24T16:55:02;1.55;;;1.33;;
72209;SDS011;60113;48.762;12.302;2023-06-24T16:57:31;1.80;;;1.40;;
72209;SDS011;60113;48.762;12.302;2023-06-24T17:00:05;2.28;;;1.50;;
72209;SDS011;60113;48.762;12.302;2023-06-24T17:02:31;1.83;;;1.17;;
72209;SDS011;60113;48.762;12.302;2023-06-24T17:05:03;2.63;;;1.48;;
72209;SDS011;60113;48.762;12.302;2023-06-24T17:07:47;1.90;;;1.33;;
72209;SDS011;60113;48.762;12.302;2023-06-24T17:10:18;1.65;;;1.48;;
72209;SDS011;60113;48.762;12.302;2023-06-24T17:12:43;2.00;;;1.40;;
72209;SDS011;60113;48.762;12.302;2023-06-24T17:15:09;2.28;;;1.42;;
72209;SDS011;60113;48.762;12.302;2023-06-24T17:17:35;3.88;;;1.90;;
72209;SDS011;60113;48.762;12.302;2023-06-24T17:20:05;2.45;;;1.50;;
72209;SDS011;60113;48.762;12.302;2023-06-24T17:22:36;1.83;;;1.20;;
72209;SDS011;60113;48.762;12.302;2023-06-24T17:25:02;1.90;;;1.60;;
72209;SDS011;60113;48.762;12.302;2023-06-24T17:27:30;1.73;;;1.20;;
72209;SDS011;60113;48.762;12.302;2023-06-24T17:29:56;1.75;;;1.42;;
72209;SDS011;60113;48.762;12.302;2023-06-24T17:32:42;3.33;;;1.55;;
72209;SDS011;60113;48.762;12.302;2023-06-24T17:35:10;2.75;;;1.65;;
72209;SDS011;60113;48.762;12.302;2023-06-24T17:37:44;1.85;;;1.63;;
72209;SDS011;60113;48.762;12.302;2023-06-24T17:40:18;1.98;;;1.70;;
72209;SDS011;60113;48.762;12.302;2023-06-24T17:42:44;2.58;;;1.92;;
72209;SDS011;60113;48.762;12.302;2023-06-24T17:45:24;2.47;;;1.88;;
72209;SDS011;60113;48.762;12.302;2023-06-24T17:47:51;2.47;;;1.77;;
72209;SDS011;60113;48.762;12.302;2023-06-24T17:50:17;2.63;;;1.80;;
72209;SDS011;60113;48.762;12.302;2023-06-24T17:52:43;5.15;;;1.67;;
72209;SDS011;60113;48.762;12.302;2023-06-24T17:55:08;2.58;;;1.83;;
72209;SDS011;60113;48.762;12.302;2023-06-24T17:57:39;2.78;;;2.20;;
72209;SDS011;60113;48.762;12.302;2023-06-24T18:00:05;4.53;;;2.33;;
72209;SDS011;60113;48.762;12.302;2023-06-24T18:02:31;3.38;;;2.20;;
72209;SDS011;60113;48.762;12.302;2023-06-24T18:04:59;4.10;;;2.58;;
72209;SDS011;60113;48.762;12.302;2023-06-24T18:07:24;4.78;;;2.90;;
72209;SDS011;60113;48.762;12.302;2023-06-24T18:09:50;3.25;;;2.10;;
72209;SDS011;60113;48.762;12.302;2023-06-24T18:12:18;4.72;;;2.53;;
72209;SDS011;60113;48.762;12.302;2023-06-24T18:14:52;2.63;;;2.00;;
72209;SDS011;60113;48.762;12.302;2023-06-24T18:17:18;3.33;;;2.15;;
72209;SDS011;60113;48.762;12.302;2023-06-24T18:20:02;4.38;;;1.88;;
72209;SDS011;60113;48.762;12.302;2023-06-24T18:22:40;3.38;;;2.13;;
72209;SDS011;60113;48.762;12.302;2023-06-24T18:25:05;4.30;;;2.10;;
72209;SDS011;60113;48.762;12.302;2023-06-24T18:27:49;3.10;;;1.70;;
72209;SDS011;60113;48.762;12.302;2023-06-24T18:30:23;3.60;;;2.00;;
72209;SDS011;60113;48.762;12.302;2023-06-24T18:32:49;2.85;;;2.13;;
72209;SDS011;60113;48.762;12.302;2023-06-24T18:35:15;2.85;;;2.03;;
72209;SDS011;60113;48.762;12.302;2023-06-24T18:37:40;2.65;;;1.90;;
72209;SDS011;60113;48.762;12.302;2023-06-24T18:40:14;2.75;;;2.05;;
72209;SDS011;60113;48.762;12.302;2023-06-24T18:42:40;2.10;;;1.60;;
72209;SDS011;60113;48.762;12.302;2023-06-24T18:45:14;2.60;;;2.00;;
72209;SDS011;60113;48.762;12.302;2023-06-24T18:47:40;3.05;;;2.22;;
72209;SDS011;60113;48.762;12.302;2023-06-24T18:50:24;2.13;;;1.67;;
72209;SDS011;60113;48.762;12.302;2023-06-24T18:53:00;2.97;;;2.20;;
72209;SDS011;60113;48.762;12.302;2023-06-24T18:55:28;3.38;;;1.92;;
72209;SDS011;60113;48.762;12.302;2023-06-24T18:57:54;3.22;;;1.90;;
72209;SDS011;60113;48.762;12.302;2023-06-24T19:00:19;4.25;;;1.95;;
72209;SDS011;60113;48.762;12.302;2023-06-24T19:02:45;3.55;;;2.00;;
72209;SDS011;60113;48.762;12.302;2023-06-24T19:05:16;3.33;;;1.80;;
72209;SDS011;60113;48.762;12.302;2023-06-24T19:07:41;3.00;;;2.20;;
72209;SDS011;60113;48.762;12.302;2023-06-24T19:10:09;4.10;;;2.15;;
72209;SDS011;60113;48.762;12.302;2023-06-24T19:12:46;4.93;;;2.00;;
72209;SDS011;60113;48.762;12.302;2023-06-24T19:15:20;3.97;;;2.15;;
72209;SDS011;60113;48.762;12.302;2023-06-24T19:17:48;3.65;;;2.30;;
72209;SDS011;60113;48.762;12.302;2023-06-24T19:20:22;3.95;;;2.08;;
72209;SDS011;60113;48.762;12.302;2023-06-24T19:23:00;5.18;;;2.20;;
72209;SDS011;60113;48.762;12.302;2023-06-24T19:25:28;3.13;;;2.20;;
72209;SDS011;60113;48.762;12.302;2023-06-24T19:27:59;3.53;;;2.33;;
72209;SDS011;60113;48.762;12.302;2023-06-24T19:30:27;4.43;;;2.65;;
72209;SDS011;60113;48.762;12.302;2023-06-24T19:33:11;2.97;;;2.55;;
72209;SDS011;60113;48.762;12.302;2023-06-24T19:35:39;3.92;;;2.53;;
72209;SDS011;60113;48.762;12.302;2023-06-24T19:38:13;3.03;;;2.38;;
72209;SDS011;60113;48.762;12.302;2023-06-24T19:40:39;3.28;;;2.33;;
72209;SDS011;60113;48.762;12.302;2023-06-24T19:43:10;3.88;;;2.47;;
72209;SDS011;60113;48.762;12.302;2023-06-24T19:45:35;3.63;;;2.53;;
72209;SDS011;60113;48.762;12.302;2023-06-24T19:48:20;3.75;;;2.30;;
72209;SDS011;60113;48.762;12.302;2023-06-24T19:50:45;3.13;;;2.05;;
72209;SDS011;60113;48.762;12.302;2023-06-24T19:53:11;3.10;;;2.38;;
72209;SDS011;60113;48.762;12.302;2023-06-24T19:55:48;3.60;;;2.40;;
72209;SDS011;60113;48.762;12.302;2023-06-24T19:58:14;3.17;;;2.42;;
72209;SDS011;60113;48.762;12.302;2023-06-24T20:00:39;3.63;;;2.80;;
72209;SDS011;60113;48.762;12.302;2023-06-24T20:03:13;3.60;;;2.80;;
72209;SDS011;60113;48.762;12.302;2023-06-24T20:05:39;3.63;;;2.65;;
72209;SDS011;60113;48.762;12.302;2023-06-24T20:08:07;3.38;;;2.47;;
72209;SDS011;60113;48.762;12.302;2023-06-24T20:10:35;7.28;;;3.90;;
72209;SDS011;60113;48.762;12.302;2023-06-24T20:13:03;3.72;;;2.70;;
72209;SDS011;60113;48.762;12.302;2023-06-24T20:15:34;4.40;;;2.42;;
72209;SDS011;60113;48.762;12.302;2023-06-24T20:18:17;4.40;;;2.65;;
72209;SDS011;60113;48.762;12.302;2023-06-24T20:21:01;6.90;;;2.95;;
72209;SDS011;60113;48.762;12.302;2023-06-24T20:23:29;9.13;;;3.38;;
72209;SDS011;60113;48.762;12.302;2023-06-24T20:26:06;3.83;;;2.90;;
72209;SDS011;60113;48.762;12.302;2023-06-24T20:28:32;4.13;;;2.80;;
72209;SDS011;60113;48.762;12.302;2023-06-24T20:31:16;5.65;;;2.75;;
72209;SDS011;60113;48.762;12.302;2023-06-24T20:33:44;6.05;;;3.28;;
72209;SDS011;60113;48.762;12.302;2023-06-24T20:36:09;4.68;;;3.22;;
72209;SDS011;60113;48.762;12.302;2023-06-24T20:38:43;4.70;;;3.20;;
72209;SDS011;60113;48.762;12.302;2023-06-24T20:41:21;5.22;;;3.53;;
72209;SDS011;60113;48.762;12.302;2023-06-24T20:43:48;4.78;;;3.60;;
72209;SDS011;60113;48.762;12.302;2023-06-24T20:46:17;5.30;;;3.80;;
72209;SDS011;60113;48.762;12.302;2023-06-24T20:48:45;5.22;;;3.72;;
72209;SDS011;60113;48.762;12.302;2023-06-24T20:51:23;7.47;;;4.15;;
72209;SDS011;60113;48.762;12.302;2023-06-24T20:53:48;6.40;;;4.53;;
72209;SDS011;60113;48.762;12.302;2023-06-24T20:56:29;6.30;;;4.03;;
72209;SDS011;60113;48.762;12.302;2023-06-24T20:58:54;6.22;;;3.78;;
72209;SDS011;60113;48.762;12.302;2023-06-24T21:01:38;5.57;;;3.80;;
72209;SDS011;60113;48.762;12.302;2023-06-24T21:04:22;4.65;;;3.25;;
72209;SDS011;60113;48.762;12.302;2023-06-24T21:06:47;3.67;;;3.00;;
72209;SDS011;60113;48.762;12.302;2023-06-24T21:09:12;5.13;;;3.53;;
72209;SDS011;60113;48.762;12.302;2023-06-24T21:11:38;6.00;;;3.80;;
72209;SDS011;60113;48.762;12.302;2023-06-24T21:14:06;22.90;;;4.70;;
72209;SDS011;60113;48.762;12.302;2023-06-24T21:16:50;6.10;;;3.90;;
72209;SDS011;60113;48.762;12.302;2023-06-24T21:19:31;5.25;;;4.00;;
72209;SDS011;60113;48.762;12.302;2023-06-24T21:21:56;6.15;;;3.92;;
72209;SDS011;60113;48.762;12.302;2023-06-24T21:24:21;5.88;;;3.75;;
72209;SDS011;60113;48.762;12.302;2023-06-24T21:26:50;5.78;;;3.80;;
72209;SDS011;60113;48.762;12.302;2023-06-24T21:29:34;6.10;;;3.55;;
72209;SDS011;60113;48.762;12.302;2023-06-24T21:32:01;4.72;;;3.45;;
72209;SDS011;60113;48.762;12.302;2023-06-24T21:34:30;9.15;;;4.22;;
72209;SDS011;60113;48.762;12.302;2023-06-24T21:36:55;6.07;;;3.63;;
72209;SDS011;60113;48.762;12.302;2023-06-24T21:39:30;4.35;;;3.15;;
72209;SDS011;60113;48.762;12.302;2023-06-24T21:42:01;6.28;;;3.80;;
72209;SDS011;60113;48.762;12.302;2023-06-24T21:44:29;4.93;;;3.25;;
72209;SDS011;60113;48.762;12.302;2023-06-24T21:47:03;5.18;;;3.67;;
72209;SDS011;60113;48.762;12.302;2023-06-24T21:49:29;7.53;;;3.95;;
72209;SDS011;60113;48.762;12.302;2023-06-24T21:51:54;6.07;;;3.72;;
72209;SDS011;60113;48.762;12.302;2023-06-24T21:54:19;7.10;;;4.22;;
72209;SDS011;60113;48.762;12.302;2023-06-24T21:56:56;7.80;;;5.00;;
72209;SDS011;60113;48.762;12.302;2023-06-24T21:59:24;9.13;;;4.82;;
72209;SDS011;60113;48.762;12.302;2023-06-24T22:02:09;6.97;;;4.80;;
72209;SDS011;60113;48.762;12.302;2023-06-24T22:04:40;6.00;;;4.40;;
72209;SDS011;60113;48.762;12.302;2023-06-24T22:07:17;9.20;;;4.68;;
72209;SDS011;60113;48.762;12.302;2023-06-24T22:09:43;6.85;;;4.78;;
72209;SDS011;60113;48.762;12.302;2023-06-24T22:12:26;6.25;;;4.43;;
72209;SDS011;60113;48.762;12.302;2023-06-24T22:14:51;9.15;;;4.57;;
72209;SDS011;60113;48.762;12.302;2023-06-24T22:17:19;6.00;;;4.18;;